createdAt,value
2022-08-07T00:00:30.601Z,80.16
2022-08-07T00:10:33.821Z,79.78
2022-08-07T00:20:39.059Z,81.48
2022-08-07T00:30:42.030Z,81.60
2022-08-07T00:40:46.355Z,82.51
2022-08-07T00:50:51.527Z,84.01
2022-08-07T01:00:56.073Z,85.04
2022-08-07T01:11:00.741Z,85.78
2022-08-07T01:21:26.076Z,86.39
2022-08-07T01:31:42.527Z,86.59
2022-08-07T01:42:07.437Z,87.52
2022-08-07T01:52:15.421Z,89.42
2022-08-07T02:03:11.390Z,88.79
2022-08-07T02:12:50.102Z,88.30
2022-08-07T02:23:04.646Z,87.98
2022-08-07T02:33:10.467Z,89.55
2022-08-07T02:43:17.308Z,90.45
2022-08-07T02:53:27.222Z,90.71
2022-08-07T03:03:42.133Z,90.98
2022-08-07T03:14:01.618Z,92.18
2022-08-07T03:24:18.888Z,92.67
2022-08-07T03:34:28.160Z,93.20
2022-08-07T03:44:38.710Z,92.42
2022-08-07T03:54:54.356Z,93.48
2022-08-07T04:04:59.417Z,94.39
2022-08-07T04:15:04.966Z,93.86
2022-08-07T04:25:14.611Z,94.37
2022-08-07T04:35:21.415Z,94.66
2022-08-07T04:45:57.295Z,95.47
2022-08-07T04:58:11.157Z,94.83
2022-08-07T05:06:43.415Z,95.04
2022-08-07T05:16:52.680Z,95.28
2022-08-07T05:27:00.079Z,95.59
2022-08-07T05:37:05.901Z,95.76
2022-08-07T05:47:20.099Z,95.25
2022-08-07T05:57:44.971Z,93.40
2022-08-07T06:08:09.334Z,91.32
2022-08-07T06:18:15.349Z,90.14
2022-08-07T06:28:27.964Z,86.35
2022-08-07T06:38:33.058Z,84.20
2022-08-07T06:48:44.413Z,82.43
2022-08-07T07:00:17.429Z,79.34
2022-08-07T07:09:25.035Z,77.06
2022-08-07T07:19:55.342Z,75.32
2022-08-07T07:30:09.763Z,72.34
2022-08-07T07:40:18.438Z,71.99
2022-08-07T07:50:33.579Z,69.50
2022-08-07T08:00:43.744Z,68.28
2022-08-07T08:10:53.613Z,65.01
2022-08-07T08:20:59.634Z,65.58
2022-08-07T08:31:06.403Z,64.57
2022-08-07T08:41:15.770Z,60.71
2022-08-07T08:51:49.542Z,61.23
2022-08-07T09:02:01.636Z,55.68
2022-08-07T09:12:30.188Z,54.32
2022-08-07T09:24:55.521Z,54.42
2022-08-07T09:33:53.187Z,53.31
2022-08-07T09:44:20.038Z,49.79
2022-08-07T09:54:37.460Z,50.48
2022-08-07T10:05:12.723Z,49.44
2022-08-07T10:15:44.768Z,47.39
2022-08-07T10:26:02.494Z,46.26
2022-08-07T10:36:29.934Z,45.63
2022-08-07T10:46:42.898Z,44.55
2022-08-07T10:57:01.977Z,42.40
2022-08-07T11:07:56.977Z,41.33
2022-08-07T11:17:47.978Z,39.14
2022-08-07T11:28:02.061Z,38.60
2022-08-07T11:38:17.547Z,39.05
2022-08-07T11:48:40.562Z,38.80
2022-08-07T11:59:00.086Z,37.98
2022-08-07T12:09:07.964Z,38.01
2022-08-07T12:19:35.991Z,38.18
2022-08-07T12:30:02.939Z,37.99
2022-08-07T12:40:29.757Z,35.67
2022-08-07T12:50:48.914Z,35.98
2022-08-07T13:01:03.993Z,34.64
2022-08-07T13:11:25.007Z,34.98
2022-08-07T13:21:50.207Z,35.59
2022-08-07T13:32:15.267Z,34.72
2022-08-07T13:42:27.974Z,35.08
2022-08-07T13:52:39.658Z,34.24
2022-08-07T14:02:54.283Z,33.88
2022-08-07T14:13:02.886Z,32.99
2022-08-07T14:23:17.978Z,31.92
2022-08-07T14:33:44.986Z,30.60
2022-08-07T14:43:57.265Z,29.31
2022-08-07T14:54:31.209Z,29.25
2022-08-07T15:04:28.876Z,28.89
2022-08-07T15:14:35.388Z,28.21
2022-08-07T15:25:17.866Z,28.10
2022-08-07T15:36:00.301Z,30.55
2022-08-07T15:46:32.274Z,31.28
2022-08-07T15:56:42.752Z,32.14
2022-08-07T16:06:54.593Z,32.88
2022-08-07T16:17:15.015Z,34.38
2022-08-07T16:27:39.795Z,35.24
2022-08-07T16:38:29.602Z,35.99
2022-08-07T16:50:27.191Z,37.85
2022-08-07T17:00:00.193Z,38.80
2022-08-07T17:10:32.360Z,40.55
2022-08-07T17:20:37.958Z,42.37
2022-08-07T17:30:57.733Z,43.25
2022-08-07T17:42:04.811Z,44.18
2022-08-07T17:52:01.337Z,46.04
2022-08-07T18:02:23.258Z,47.06
2022-08-07T18:12:43.372Z,46.30
2022-08-07T18:23:05.962Z,46.91
2022-08-07T18:34:40.873Z,48.59
2022-08-07T18:55:55.949Z,51.20
2022-08-07T19:06:16.571Z,52.89
2022-08-07T19:17:00.527Z,54.13
2022-08-07T19:28:31.013Z,55.57
2022-08-07T19:37:20.340Z,56.94
2022-08-07T19:47:36.507Z,58.18
2022-08-07T19:58:02.713Z,59.32
2022-08-07T20:08:13.731Z,60.46
2022-08-07T20:18:21.211Z,61.42
2022-08-07T20:28:41.073Z,63.06
2022-08-07T20:38:53.698Z,64.72
2022-08-07T20:50:00.291Z,66.28
2022-08-07T21:00:07.361Z,66.33
2022-08-07T21:10:00.214Z,67.44
2022-08-07T21:20:07.277Z,68.29
2022-08-07T21:30:18.071Z,68.78
2022-08-07T21:40:38.340Z,70.35
2022-08-07T21:50:49.834Z,70.96
2022-08-07T22:01:00.993Z,71.98
2022-08-07T22:11:06.913Z,74.23
2022-08-07T22:21:19.505Z,77.31
2022-08-07T22:31:56.407Z,76.61
2022-08-07T22:42:10.553Z,77.49
2022-08-07T22:52:52.036Z,77.02
2022-08-07T23:03:11.741Z,78.53
2022-08-07T23:13:48.458Z,79.62
2022-08-07T23:24:20.134Z,78.21
2022-08-07T23:34:50.886Z,79.01
2022-08-07T23:45:07.797Z,81.98
2022-08-07T23:55:51.695Z,81.61
